Time;durP1;ratioP1;P1;durP2;ratioP2;P2;SDS_P1;SDS_P2;PMS_P1;PMS_P2;Temp;Humidity;BMP_temperature;BMP_pressure;BME280_temperature;BME280_humidity;BME280_pressure;Samples;Min_cycle;Max_cycle;Signal;HPM_P1;HPM_P2
2021/10/05 00:01:33;;;;;;;1.70;1.60;;;8.00;99.90;;;;;;5044137;28;20456;-78
2021/10/05 00:03:59;;;;;;;2.00;1.87;;;8.10;99.90;;;;;;5042500;28;20268;-77
2021/10/05 00:06:25;;;;;;;2.07;1.73;;;8.10;99.90;;;;;;5042838;28;20964;-77
2021/10/05 00:08:51;;;;;;;1.53;1.50;;;8.10;99.90;;;;;;5041985;28;20252;-77
2021/10/05 00:11:16;;;;;;;1.83;1.73;;;8.10;99.90;;;;;;5042724;28;20428;-77
2021/10/05 00:13:42;;;;;;;1.87;1.77;;;8.00;99.90;;;;;;5043315;28;20419;-77
2021/10/05 00:16:09;;;;;;;2.00;1.90;;;8.00;99.90;;;;;;5042783;28;20200;-77
2021/10/05 00:18:35;;;;;;;1.57;1.47;;;8.00;99.90;;;;;;5042533;28;20451;-78
2021/10/05 00:21:02;;;;;;;2.00;1.90;;;8.10;99.90;;;;;;5042951;28;20933;-78
2021/10/05 00:23:27;;;;;;;1.63;1.53;;;8.10;99.90;;;;;;5041886;28;20424;-77
2021/10/05 00:25:53;;;;;;;1.90;1.53;;;8.10;99.90;;;;;;5043415;28;20493;-77
2021/10/05 00:28:19;;;;;;;1.60;1.50;;;8.10;99.90;;;;;;5043294;28;20276;-78
2021/10/05 00:30:44;;;;;;;2.37;2.27;;;8.00;99.90;;;;;;5042680;28;20180;-77
2021/10/05 00:33:10;;;;;;;1.80;1.70;;;8.00;99.90;;;;;;5043517;28;20206;-77
2021/10/05 00:35:36;;;;;;;2.50;2.40;;;8.00;99.90;;;;;;5041445;28;20173;-78
2021/10/05 00:38:01;;;;;;;1.80;1.70;;;8.00;99.90;;;;;;5040835;28;20190;-77
2021/10/05 00:40:27;;;;;;;2.07;1.83;;;8.00;99.90;;;;;;5042603;28;20654;-77
2021/10/05 00:42:53;;;;;;;1.93;1.83;;;7.90;99.90;;;;;;5042942;28;20212;-77
2021/10/05 00:45:19;;;;;;;1.67;1.57;;;8.00;99.90;;;;;;5041466;28;20889;-77
2021/10/05 00:47:45;;;;;;;1.60;1.60;;;7.90;99.90;;;;;;5042469;28;20424;-77
2021/10/05 00:50:14;;;;;;;2.53;2.17;;;7.90;99.90;;;;;;5042235;28;20553;-77
2021/10/05 00:52:43;;;;;;;2.37;2.20;;;7.90;99.90;;;;;;5042737;28;20180;-78
2021/10/05 00:55:09;;;;;;;2.00;1.90;;;7.90;99.90;;;;;;5041235;28;20437;-77
2021/10/05 00:57:35;;;;;;;2.17;2.07;;;7.90;99.90;;;;;;5041126;28;20448;-77
2021/10/05 01:00:03;;;;;;;2.10;1.87;;;7.90;99.90;;;;;;5042377;28;20900;-77
2021/10/05 01:02:29;;;;;;;1.70;1.60;;;8.00;99.90;;;;;;5042822;28;20235;-78
2021/10/05 01:04:54;;;;;;;1.43;1.43;;;8.00;99.90;;;;;;5041866;28;20427;-77
2021/10/05 01:07:20;;;;;;;1.83;1.73;;;8.00;99.90;;;;;;5039899;28;20223;-77
2021/10/05 01:09:46;;;;;;;2.03;1.93;;;8.00;99.90;;;;;;5042039;28;20215;-78
2021/10/05 01:12:12;;;;;;;4.57;2.07;;;8.00;99.90;;;;;;5040191;28;20247;-77
2021/10/05 01:14:39;;;;;;;1.73;1.63;;;8.00;99.90;;;;;;5040369;28;20189;-77
2021/10/05 01:17:05;;;;;;;1.67;1.57;;;8.00;99.90;;;;;;5042102;28;20435;-77
2021/10/05 01:19:31;;;;;;;2.13;2.00;;;8.00;99.90;;;;;;5040804;28;20444;-77
2021/10/05 01:21:57;;;;;;;5.70;2.07;;;8.00;99.90;;;;;;5041343;28;20452;-77
2021/10/05 01:24:24;;;;;;;2.13;1.70;;;8.00;99.90;;;;;;5041519;28;20263;-77
2021/10/05 01:26:53;;;;;;;1.53;1.53;;;8.00;99.90;;;;;;5040998;28;20265;-77
2021/10/05 01:29:21;;;;;;;2.03;1.93;;;8.00;99.90;;;;;;5040812;28;20476;-77
2021/10/05 01:31:51;;;;;;;2.00;1.90;;;8.00;99.90;;;;;;5041357;28;20463;-78
2021/10/05 01:34:19;;;;;;;1.97;1.87;;;8.00;99.90;;;;;;5040904;28;20912;-78
2021/10/05 01:36:45;;;;;;;2.60;2.30;;;8.00;99.90;;;;;;5040372;28;20905;-78
2021/10/05 01:39:21;;;;;;;1.83;1.73;;;8.00;99.90;;;;;;5040949;28;20434;-78
2021/10/05 01:41:47;;;;;;;1.60;1.50;;;8.00;99.90;;;;;;5040261;28;20482;-78
2021/10/05 01:44:13;;;;;;;1.83;1.73;;;8.00;99.90;;;;;;5041626;28;20912;-78
2021/10/05 01:46:39;;;;;;;1.80;1.70;;;8.00;99.90;;;;;;5040168;28;20433;-78
2021/10/05 01:49:05;;;;;;;2.23;1.90;;;8.00;99.90;;;;;;5039579;28;20182;-78
2021/10/05 01:51:30;;;;;;;2.00;1.90;;;8.00;99.90;;;;;;5040480;28;20220;-78
2021/10/05 01:53:56;;;;;;;2.00;1.90;;;8.10;99.90;;;;;;5040787;28;20170;-77
2021/10/05 01:56:21;;;;;;;2.70;2.17;;;8.10;99.90;;;;;;5037796;28;20189;-77
2021/10/05 01:58:47;;;;;;;1.63;1.53;;;8.10;99.90;;;;;;5040872;28;20193;-77
2021/10/05 02:01:13;;;;;;;1.70;1.57;;;8.00;99.90;;;;;;5040734;28;20290;-78
2021/10/05 02:03:39;;;;;;;1.83;1.73;;;8.10;99.90;;;;;;5039203;28;20653;-77
2021/10/05 02:06:05;;;;;;;2.10;2.00;;;8.10;99.90;;;;;;5041452;28;20408;-77
2021/10/05 02:08:31;;;;;;;1.93;1.83;;;8.10;99.90;;;;;;5041401;28;20173;-78
2021/10/05 02:10:57;;;;;;;1.60;1.47;;;8.10;99.90;;;;;;5040972;28;20508;-78
2021/10/05 02:13:22;;;;;;;1.73;1.63;;;8.00;99.90;;;;;;5040643;28;20178;-77
2021/10/05 02:15:48;;;;;;;1.90;1.80;;;8.00;99.90;;;;;;5040449;28;20181;-78
2021/10/05 02:18:14;;;;;;;1.73;1.63;;;8.00;99.90;;;;;;5040134;28;20185;-77
2021/10/05 02:20:40;;;;;;;1.87;1.70;;;8.00;99.90;;;;;;5040486;28;20634;-78
2021/10/05 02:23:06;;;;;;;1.77;1.67;;;8.00;99.90;;;;;;5041232;28;20225;-77
2021/10/05 02:25:31;;;;;;;1.73;1.63;;;8.00;99.90;;;;;;5039523;28;20424;-78
2021/10/05 02:27:57;;;;;;;1.83;1.73;;;8.00;99.90;;;;;;5040651;28;20262;-78
2021/10/05 02:30:23;;;;;;;1.90;1.70;;;8.00;99.90;;;;;;5040401;28;20511;-78
2021/10/05 02:32:48;;;;;;;2.27;2.07;;;8.00;99.90;;;;;;5041435;28;20561;-78
2021/10/05 02:35:14;;;;;;;2.13;2.00;;;8.00;99.90;;;;;;5040199;28;20718;-77
2021/10/05 02:37:40;;;;;;;3.13;2.03;;;8.00;99.90;;;;;;5039557;28;20254;-78
2021/10/05 02:40:09;;;;;;;2.13;2.00;;;8.00;99.90;;;;;;5040173;28;20186;-77
2021/10/05 02:42:35;;;;;;;2.30;2.10;;;8.00;99.90;;;;;;5041072;28;20204;-77
2021/10/05 02:45:02;;;;;;;1.90;1.80;;;8.00;99.90;;;;;;5041094;28;20432;-77
2021/10/05 02:47:28;;;;;;;1.77;1.67;;;8.00;99.90;;;;;;5039143;28;20455;-78
2021/10/05 02:49:54;;;;;;;1.90;1.70;;;8.00;99.90;;;;;;5041365;28;20478;-78
2021/10/05 02:52:21;;;;;;;2.00;1.90;;;8.00;99.90;;;;;;5040399;28;20208;-77
2021/10/05 02:54:47;;;;;;;2.20;2.10;;;8.00;99.90;;;;;;5038995;28;20524;-78
2021/10/05 02:57:18;;;;;;;2.50;2.30;;;8.00;99.90;;;;;;5039738;28;20453;-77
2021/10/05 02:59:44;;;;;;;2.10;2.00;;;8.00;99.90;;;;;;5043587;28;20755;-78
2021/10/05 03:02:10;;;;;;;1.70;1.60;;;8.00;99.90;;;;;;5043166;28;20455;-78
2021/10/05 03:04:36;;;;;;;1.83;1.73;;;8.00;99.90;;;;;;5044539;28;20532;-78
2021/10/05 03:07:02;;;;;;;1.80;1.60;;;8.00;99.90;;;;;;5042946;28;20432;-78
2021/10/05 03:09:28;;;;;;;2.00;1.90;;;8.00;99.90;;;;;;5044805;28;20460;-78
2021/10/05 03:11:54;;;;;;;4.30;1.93;;;8.00;99.90;;;;;;5043045;28;20528;-77
2021/10/05 03:14:20;;;;;;;3.57;1.80;;;8.00;99.90;;;;;;5044097;28;20243;-78
2021/10/05 03:16:46;;;;;;;1.93;1.73;;;8.00;99.90;;;;;;5041790;28;20539;-78
2021/10/05 03:19:12;;;;;;;1.87;1.77;;;8.00;99.90;;;;;;5043792;28;20432;-77
2021/10/05 03:21:38;;;;;;;2.83;2.03;;;8.00;99.90;;;;;;5043752;28;20657;-77
2021/10/05 03:24:04;;;;;;;2.00;1.90;;;8.00;99.90;;;;;;5042953;28;20269;-77
2021/10/05 03:26:30;;;;;;;3.90;1.97;;;8.00;99.90;;;;;;5041896;28;20443;-78
2021/10/05 03:28:55;;;;;;;2.03;1.93;;;8.00;99.90;;;;;;5042569;28;20433;-77
2021/10/05 03:31:21;;;;;;;2.70;2.10;;;8.00;99.90;;;;;;5044665;28;20182;-77
2021/10/05 03:33:47;;;;;;;2.10;1.73;;;8.00;99.90;;;;;;5044614;28;20189;-77
2021/10/05 03:36:14;;;;;;;2.40;2.20;;;8.00;99.90;;;;;;5042747;28;20238;-77
2021/10/05 03:38:41;;;;;;;2.37;2.27;;;7.90;99.90;;;;;;5043133;28;20181;-77
2021/10/05 03:41:09;;;;;;;2.70;2.43;;;8.00;99.90;;;;;;5043029;28;20492;-77
2021/10/05 03:43:35;;;;;;;2.10;2.00;;;8.00;99.90;;;;;;5043349;28;20427;-77
2021/10/05 03:46:01;;;;;;;3.60;2.40;;;8.00;99.90;;;;;;5041935;28;20511;-78
2021/10/05 03:48:27;;;;;;;2.23;2.13;;;8.00;99.90;;;;;;5041548;28;20434;-77
2021/10/05 03:50:53;;;;;;;2.10;2.00;;;8.00;99.90;;;;;;5041248;28;20902;-77
2021/10/05 03:53:20;;;;;;;2.50;2.30;;;8.00;99.90;;;;;;5042863;28;20535;-77
2021/10/05 03:55:56;;;;;;;2.70;2.50;;;7.90;99.90;;;;;;5042373;28;20423;-78
2021/10/05 03:58:23;;;;;;;1.80;1.70;;;8.00;99.90;;;;;;5043167;28;20419;-77
2021/10/05 04:00:49;;;;;;;2.67;2.57;;;8.00;99.90;;;;;;5039826;28;20904;-78
2021/10/05 04:03:15;;;;;;;2.50;2.40;;;8.00;99.90;;;;;;5041523;28;20449;-78
2021/10/05 04:05:42;;;;;;;2.30;2.10;;;8.00;99.90;;;;;;5042312;28;20443;-77
2021/10/05 04:08:09;;;;;;;1.80;1.73;;;8.00;99.90;;;;;;5041094;28;20888;-78
2021/10/05 04:10:36;;;;;;;2.37;2.27;;;8.00;99.90;;;;;;5041876;28;20432;-77
2021/10/05 04:13:02;;;;;;;2.53;2.27;;;8.00;99.90;;;;;;5042061;28;20431;-77
2021/10/05 04:15:28;;;;;;;2.13;2.03;;;8.00;99.90;;;;;;5041643;28;20475;-77
2021/10/05 04:17:53;;;;;;;2.43;2.33;;;8.10;99.90;;;;;;5042144;28;20434;-78
2021/10/05 04:20:19;;;;;;;2.03;1.93;;;8.10;99.90;;;;;;5042474;28;20423;-77
2021/10/05 04:22:45;;;;;;;2.50;2.40;;;8.10;99.90;;;;;;5042120;28;20203;-77
2021/10/05 04:25:11;;;;;;;2.47;2.37;;;8.20;99.90;;;;;;5042378;28;20220;-77
2021/10/05 04:27:38;;;;;;;2.57;2.47;;;8.20;99.90;;;;;;5041795;28;20181;-77
2021/10/05 04:30:06;;;;;;;2.20;2.10;;;8.20;99.90;;;;;;5039372;28;20434;-78
2021/10/05 04:32:32;;;;;;;2.30;2.17;;;8.20;99.90;;;;;;5041524;28;20447;-77
2021/10/05 04:34:57;;;;;;;2.60;2.50;;;8.20;99.90;;;;;;5042448;28;20773;-77
2021/10/05 04:37:23;;;;;;;2.63;2.50;;;8.20;99.90;;;;;;5041525;28;20187;-77
2021/10/05 04:39:48;;;;;;;2.20;2.00;;;8.30;99.90;;;;;;5039196;28;20192;-77
2021/10/05 04:42:14;;;;;;;2.40;2.20;;;8.30;99.90;;;;;;5039674;28;20197;-77
2021/10/05 04:44:40;;;;;;;2.70;2.60;;;8.40;99.90;;;;;;5041689;28;20532;-77
2021/10/05 04:47:05;;;;;;;2.30;2.20;;;8.40;99.90;;;;;;5041920;28;20182;-77
2021/10/05 04:49:31;;;;;;;3.27;1.80;;;8.50;99.90;;;;;;5039422;28;20594;-77
2021/10/05 04:51:57;;;;;;;2.50;2.40;;;8.50;99.90;;;;;;5038442;28;20265;-77
2021/10/05 04:54:23;;;;;;;2.40;2.30;;;8.50;99.90;;;;;;5038961;28;20435;-77
2021/10/05 04:56:49;;;;;;;2.60;2.40;;;8.50;99.90;;;;;;5038292;28;20197;-77
2021/10/05 04:59:16;;;;;;;2.17;2.07;;;8.50;99.90;;;;;;5040175;28;20544;-77
2021/10/05 05:01:42;;;;;;;2.63;2.43;;;8.50;99.90;;;;;;5039118;28;20555;-77
2021/10/05 05:04:10;;;;;;;2.70;2.50;;;8.50;99.90;;;;;;5041893;28;20431;-77
2021/10/05 05:06:36;;;;;;;2.50;2.30;;;8.60;99.90;;;;;;5041211;28;20435;-77
2021/10/05 05:09:02;;;;;;;2.67;2.57;;;8.60;99.90;;;;;;5042328;28;20489;-76
2021/10/05 05:11:28;;;;;;;2.87;2.63;;;8.60;99.90;;;;;;5040132;28;20772;-77
2021/10/05 05:13:53;;;;;;;2.77;2.47;;;8.60;99.90;;;;;;5040187;28;20428;-77
2021/10/05 05:16:19;;;;;;;2.53;2.43;;;8.60;99.90;;;;;;5041475;28;20610;-77
2021/10/05 05:18:45;;;;;;;5.17;3.17;;;8.60;99.90;;;;;;5041167;28;20181;-77
2021/10/05 05:21:11;;;;;;;5.40;3.13;;;8.50;99.90;;;;;;5041284;28;20311;-77
2021/10/05 05:23:36;;;;;;;3.07;2.67;;;8.50;99.90;;;;;;5039259;28;20174;-78
2021/10/05 05:26:02;;;;;;;2.53;2.33;;;8.50;99.90;;;;;;5041366;28;20201;-77
2021/10/05 05:28:28;;;;;;;2.50;2.40;;;8.50;99.90;;;;;;5040978;28;20197;-77
2021/10/05 05:30:54;;;;;;;2.80;2.53;;;8.50;99.90;;;;;;5041291;28;20511;-76
2021/10/05 05:33:19;;;;;;;2.33;2.13;;;8.40;99.90;;;;;;5042469;28;20424;-77
2021/10/05 05:35:46;;;;;;;2.93;2.73;;;8.40;99.90;;;;;;5041678;28;20241;-77
2021/10/05 05:38:11;;;;;;;2.70;2.60;;;8.40;99.90;;;;;;5041262;28;20170;-77
2021/10/05 05:40:37;;;;;;;2.60;2.50;;;8.40;99.90;;;;;;5040546;28;20472;-76
2021/10/05 05:43:03;;;;;;;3.17;2.97;;;8.40;99.90;;;;;;5039186;28;20324;-77
2021/10/05 05:45:30;;;;;;;2.70;2.60;;;8.40;99.90;;;;;;5037767;28;20199;-77
2021/10/05 05:47:56;;;;;;;2.93;2.73;;;8.40;99.90;;;;;;5036518;28;20634;-77
2021/10/05 05:50:21;;;;;;;2.80;2.60;;;8.40;99.90;;;;;;5036901;28;20427;-75
2021/10/05 05:52:47;;;;;;;2.57;2.47;;;8.50;99.90;;;;;;5038917;28;20446;-76
2021/10/05 05:55:15;;;;;;;2.67;2.57;;;8.50;99.90;;;;;;5039802;28;20323;-76
2021/10/05 05:57:41;;;;;;;3.40;3.10;;;8.50;99.90;;;;;;5038960;28;20193;-76
2021/10/05 06:00:08;;;;;;;4.07;3.50;;;8.50;99.90;;;;;;5039907;28;20925;-77
2021/10/05 06:02:34;;;;;;;3.80;3.33;;;8.50;99.90;;;;;;5039625;28;20456;-78
2021/10/05 06:04:59;;;;;;;2.63;2.43;;;8.50;99.90;;;;;;5040200;28;20957;-78
2021/10/05 06:07:25;;;;;;;3.53;3.23;;;8.50;99.90;;;;;;5039199;28;20475;-78
2021/10/05 06:09:51;;;;;;;3.00;2.80;;;8.50;99.90;;;;;;5039327;28;20192;-78
2021/10/05 06:12:19;;;;;;;3.77;3.30;;;8.60;99.90;;;;;;5038470;28;20210;-77
2021/10/05 06:14:46;;;;;;;2.60;2.40;;;8.60;99.90;;;;;;5040103;28;20260;-77
2021/10/05 06:17:12;;;;;;;3.20;2.90;;;8.60;99.90;;;;;;5038201;28;20447;-78
2021/10/05 06:19:37;;;;;;;3.50;3.30;;;8.70;99.90;;;;;;5040298;28;20443;-78
2021/10/05 06:22:03;;;;;;;3.50;3.23;;;8.70;99.90;;;;;;5040904;28;20479;-78
2021/10/05 06:24:29;;;;;;;3.43;3.20;;;8.80;99.90;;;;;;5040535;28;20170;-77
2021/10/05 06:26:54;;;;;;;3.50;3.20;;;8.90;99.90;;;;;;5038021;28;20429;-78
2021/10/05 06:29:20;;;;;;;6.03;3.30;;;8.90;99.90;;;;;;5036986;28;20613;-77
2021/10/05 06:31:46;;;;;;;3.07;2.77;;;9.00;99.90;;;;;;5038900;28;20184;-78
2021/10/05 06:34:11;;;;;;;3.93;3.63;;;9.00;99.90;;;;;;5041541;28;20194;-78
2021/10/05 06:36:37;;;;;;;3.13;2.83;;;9.10;99.90;;;;;;5042011;28;20185;-78
2021/10/05 06:39:03;;;;;;;4.00;3.07;;;9.10;99.90;;;;;;5042690;28;20239;-78
2021/10/05 06:41:29;;;;;;;2.90;2.70;;;9.10;99.90;;;;;;5042985;28;20201;-78
2021/10/05 06:43:54;;;;;;;5.30;3.30;;;9.20;99.90;;;;;;5038894;28;20438;-78
2021/10/05 06:46:20;;;;;;;3.70;3.07;;;9.20;99.90;;;;;;5044685;28;20169;-78
2021/10/05 06:48:46;;;;;;;3.80;3.50;;;9.20;99.90;;;;;;5044223;28;20642;-78
2021/10/05 06:51:13;;;;;;;3.73;3.43;;;9.30;99.90;;;;;;5042879;28;20188;-78
2021/10/05 06:53:38;;;;;;;3.10;2.90;;;9.30;99.90;;;;;;5043059;28;20506;-78
2021/10/05 06:56:04;;;;;;;3.40;3.20;;;9.30;99.90;;;;;;5042328;28;20428;-78
2021/10/05 06:58:30;;;;;;;3.20;3.00;;;9.40;99.90;;;;;;5041779;28;20209;-78
2021/10/05 07:00:56;;;;;;;4.07;2.87;;;9.40;99.90;;;;;;5042628;28;20596;-78
2021/10/05 07:03:21;;;;;;;5.23;3.73;;;9.50;99.90;;;;;;5043302;28;20177;-78
2021/10/05 07:05:47;;;;;;;3.57;3.10;;;9.50;99.90;;;;;;5043269;28;20515;-78
2021/10/05 07:08:14;;;;;;;4.93;3.80;;;9.60;99.90;;;;;;5042057;28;20196;-78
2021/10/05 07:10:40;;;;;;;3.60;3.27;;;9.60;99.90;;;;;;5041229;28;20497;-78
2021/10/05 07:13:07;;;;;;;5.00;3.20;;;9.70;99.90;;;;;;5040839;28;20443;-77
2021/10/05 07:15:33;;;;;;;3.20;3.00;;;9.70;99.90;;;;;;5042286;28;20256;-78
2021/10/05 07:17:59;;;;;;;4.83;3.07;;;9.70;99.90;;;;;;5040587;28;20534;-78
2021/10/05 07:20:26;;;;;;;3.27;2.60;;;9.80;99.90;;;;;;5043603;28;20500;-79
2021/10/05 07:22:52;;;;;;;3.57;3.30;;;9.80;99.90;;;;;;5043214;28;20290;-79
2021/10/05 07:25:18;;;;;;;3.77;3.30;;;9.90;99.90;;;;;;5043863;28;20466;-78
2021/10/05 07:27:53;;;;;;;4.10;3.80;;;9.90;99.90;;;;;;5042292;28;20265;-78
2021/10/05 07:30:23;;;;;;;4.57;4.10;;;10.00;99.90;;;;;;5043173;28;20395;-77
2021/10/05 07:32:54;;;;;;;7.17;3.83;;;10.00;99.90;;;;;;5043617;28;20400;-77
2021/10/05 07:35:20;;;;;;;6.43;4.23;;;10.10;99.90;;;;;;5043868;28;20408;-77
2021/10/05 07:37:46;;;;;;;4.93;4.63;;;10.20;99.90;;;;;;5043377;28;20420;-77
2021/10/05 07:40:15;;;;;;;5.17;4.27;;;10.40;99.90;;;;;;5042674;28;20188;-78
2021/10/05 07:42:41;;;;;;;5.37;4.97;;;10.40;99.90;;;;;;5043065;28;20447;-78
2021/10/05 07:45:07;;;;;;;5.00;4.20;;;10.40;99.90;;;;;;5043125;28;20427;-78
2021/10/05 07:47:33;;;;;;;6.00;4.37;;;10.40;99.90;;;;;;5041483;28;20413;-78
2021/10/05 07:49:59;;;;;;;6.00;5.10;;;10.50;99.90;;;;;;5042563;28;20415;-78
2021/10/05 07:52:24;;;;;;;4.90;4.50;;;10.60;99.90;;;;;;5043762;28;20806;-78
2021/10/05 07:54:50;;;;;;;5.90;5.10;;;10.60;99.90;;;;;;5043051;28;20177;-78
2021/10/05 07:57:15;;;;;;;8.60;5.40;;;10.70;99.90;;;;;;5042985;28;20204;-78
2021/10/05 07:59:41;;;;;;;4.83;4.33;;;10.70;99.90;;;;;;5042727;28;20211;-77
2021/10/05 08:02:07;;;;;;;4.93;4.30;;;10.80;99.90;;;;;;5042752;28;20201;-77
2021/10/05 08:04:32;;;;;;;6.27;5.23;;;10.80;99.90;;;;;;5042687;28;20180;-78
2021/10/05 08:06:58;;;;;;;6.00;5.03;;;10.80;99.90;;;;;;5042771;28;20176;-78
2021/10/05 08:09:24;;;;;;;7.83;4.40;;;10.90;99.90;;;;;;5040446;28;20174;-78
2021/10/05 08:11:49;;;;;;;5.23;4.83;;;10.90;99.90;;;;;;5042076;28;20185;-78
2021/10/05 08:14:16;;;;;;;5.07;4.40;;;10.90;99.90;;;;;;5042245;28;20177;-78
2021/10/05 08:16:42;;;;;;;4.90;3.97;;;11.00;99.90;;;;;;5042500;28;20177;-78
2021/10/05 08:19:08;;;;;;;5.40;4.10;;;11.00;99.90;;;;;;5041914;28;20420;-78
2021/10/05 08:21:34;;;;;;;8.93;4.30;;;11.00;99.90;;;;;;5041138;28;20280;-78
2021/10/05 08:24:00;;;;;;;5.97;4.53;;;11.10;99.90;;;;;;5041846;28;20169;-78
2021/10/05 08:26:25;;;;;;;5.17;4.60;;;11.10;99.90;;;;;;5042515;28;20489;-77
2021/10/05 08:28:51;;;;;;;4.70;4.27;;;11.20;99.90;;;;;;5041479;28;20420;-77
2021/10/05 08:31:18;;;;;;;5.43;4.93;;;11.20;99.90;;;;;;5041626;28;20515;-78
2021/10/05 08:33:46;;;;;;;6.50;4.70;;;11.30;99.90;;;;;;5040743;28;20611;-77
2021/10/05 08:36:11;;;;;;;4.57;4.17;;;11.30;99.90;;;;;;5038955;28;20912;-78
2021/10/05 08:38:39;;;;;;;6.27;5.10;;;11.30;99.90;;;;;;5040952;28;20420;-78
2021/10/05 08:41:06;;;;;;;6.33;4.97;;;11.30;99.90;;;;;;5042287;28;20185;-77
2021/10/05 08:43:32;;;;;;;5.00;4.57;;;11.40;99.90;;;;;;5038358;28;20442;-77
2021/10/05 08:45:59;;;;;;;5.30;4.70;;;11.50;99.90;;;;;;5041507;28;20416;-78
2021/10/05 08:48:29;;;;;;;5.13;4.73;;;11.50;99.90;;;;;;5041769;28;20450;-77
2021/10/05 08:50:55;;;;;;;6.13;4.80;;;11.50;99.90;;;;;;5038989;28;20897;-78
2021/10/05 08:53:20;;;;;;;7.47;4.80;;;11.50;99.90;;;;;;5041202;28;20443;-78
2021/10/05 08:55:46;;;;;;;5.20;4.70;;;11.70;99.90;;;;;;5041461;28;20182;-78
2021/10/05 08:58:12;;;;;;;4.70;4.30;;;11.60;99.90;;;;;;5037979;28;20206;-78
2021/10/05 09:00:38;;;;;;;6.50;6.00;;;11.70;99.90;;;;;;5041831;28;20176;-78
2021/10/05 09:03:04;;;;;;;5.07;4.50;;;11.80;99.90;;;;;;5042278;28;20193;-77
2021/10/05 09:05:29;;;;;;;5.33;4.83;;;11.80;99.90;;;;;;5041693;28;20181;-78
2021/10/05 09:07:57;;;;;;;5.00;4.60;;;12.00;99.90;;;;;;5039837;28;20432;-78
2021/10/05 09:10:26;;;;;;;5.17;4.27;;;12.00;99.90;;;;;;5040428;28;20185;-78
2021/10/05 09:12:52;;;;;;;6.10;5.00;;;12.10;99.90;;;;;;5040876;28;20855;-78
2021/10/05 09:15:20;;;;;;;6.97;4.80;;;12.10;99.90;;;;;;5040467;28;20432;-78
2021/10/05 09:17:56;;;;;;;11.27;5.10;;;12.20;99.90;;;;;;5039536;28;20439;-77
2021/10/05 09:20:26;;;;;;;5.10;4.63;;;12.20;99.90;;;;;;5043028;28;20491;-78
2021/10/05 09:23:14;;;;;;;5.87;5.37;;;12.30;99.90;;;;;;5040109;28;20610;-78
2021/10/05 09:25:46;;;;;;;5.63;5.07;;;12.40;99.90;;;;;;5038796;28;20927;-78
2021/10/05 09:28:23;;;;;;;4.77;4.37;;;12.40;99.90;;;;;;5041045;28;20940;-78
2021/10/05 09:31:09;;;;;;;6.73;4.90;;;12.50;99.90;;;;;;5042005;28;20446;-78
2021/10/05 09:33:35;;;;;;;5.83;4.60;;;12.60;99.90;;;;;;5041241;28;20440;-78
2021/10/05 09:36:02;;;;;;;4.70;4.40;;;12.60;99.90;;;;;;5041514;28;20770;-78
2021/10/05 09:38:31;;;;;;;5.93;5.33;;;12.70;99.90;;;;;;5040894;28;20471;-78
2021/10/05 09:40:56;;;;;;;5.60;4.40;;;12.70;99.90;;;;;;5040367;28;20886;-78
2021/10/05 09:43:23;;;;;;;4.47;4.07;;;12.70;99.90;;;;;;5039974;28;20467;-78
2021/10/05 09:45:51;;;;;;;4.83;4.20;;;12.70;99.90;;;;;;5039834;28;20651;-78
2021/10/05 09:48:17;;;;;;;3.93;3.53;;;12.70;99.90;;;;;;5039018;28;20631;-78
2021/10/05 09:50:43;;;;;;;8.00;4.80;;;12.60;99.90;;;;;;5042176;28;20855;-78
2021/10/05 09:53:11;;;;;;;5.30;4.80;;;12.70;99.90;;;;;;5040240;28;20432;-78
2021/10/05 09:55:39;;;;;;;4.60;4.10;;;12.80;99.90;;;;;;5041347;28;20500;-78
2021/10/05 09:58:06;;;;;;;4.93;4.10;;;12.80;99.90;;;;;;5039112;28;20438;-78
2021/10/05 10:00:36;;;;;;;5.47;4.30;;;12.70;99.90;;;;;;5039098;28;20501;-78
2021/10/05 10:03:04;;;;;;;4.27;3.87;;;12.70;99.90;;;;;;5039417;28;20447;-79
2021/10/05 10:05:30;;;;;;;4.80;4.30;;;12.70;99.90;;;;;;5039532;28;20424;-78
2021/10/05 10:07:58;;;;;;;5.60;4.50;;;12.70;99.90;;;;;;5039640;28;20522;-78
2021/10/05 10:10:33;;;;;;;3.87;3.57;;;12.70;99.90;;;;;;5042826;28;20180;-79
2021/10/05 10:13:01;;;;;;;4.80;4.40;;;12.60;99.90;;;;;;5043505;28;20526;-78
2021/10/05 10:15:29;;;;;;;5.80;4.17;;;12.60;99.90;;;;;;5043243;28;20486;-78
2021/10/05 10:18:18;;;;;;;4.10;3.90;;;12.60;99.90;;;;;;5042678;28;20475;-78
2021/10/05 10:20:50;;;;;;;5.50;4.33;;;12.60;99.90;;;;;;5043936;28;20900;-78
2021/10/05 10:23:26;;;;;;;5.57;5.03;;;12.60;99.90;;;;;;5041721;28;20450;-78
2021/10/05 10:25:52;;;;;;;4.57;4.20;;;12.60;99.90;;;;;;5043602;28;20420;-78
2021/10/05 10:28:22;;;;;;;5.40;5.00;;;12.60;99.90;;;;;;5045480;28;20432;-79
2021/10/05 10:30:55;;;;;;;4.50;4.20;;;12.70;99.90;;;;;;5042546;28;20488;-78
2021/10/05 10:33:21;;;;;;;4.73;4.43;;;12.60;99.90;;;;;;5044206;28;20431;-78
2021/10/05 10:35:58;;;;;;;5.00;4.67;;;12.60;99.90;;;;;;5043195;28;20443;-79
2021/10/05 10:38:29;;;;;;;5.30;4.03;;;12.60;99.90;;;;;;5044599;28;21272;-78
2021/10/05 10:40:56;;;;;;;4.80;4.50;;;12.60;99.90;;;;;;5026297;28;20435;-79
2021/10/05 10:43:25;;;;;;;5.37;4.97;;;12.60;99.90;;;;;;5043527;28;20484;-79
2021/10/05 10:45:57;;;;;;;5.60;5.20;;;12.50;99.90;;;;;;5042583;28;20449;-79
2021/10/05 10:48:34;;;;;;;5.80;5.40;;;12.60;99.90;;;;;;5043620;28;20780;-79
2021/10/05 10:51:13;;;;;;;4.93;4.57;;;12.60;99.90;;;;;;5041943;28;20431;-79
2021/10/05 10:53:40;;;;;;;5.20;4.70;;;12.70;99.90;;;;;;5041860;28;20446;-79
2021/10/05 10:56:07;;;;;;;5.40;4.93;;;12.70;99.90;;;;;;5042130;28;20442;-79
2021/10/05 10:58:42;;;;;;;5.83;5.33;;;12.70;99.90;;;;;;5041867;28;20442;-79
2021/10/05 11:01:14;;;;;;;5.90;5.27;;;12.80;99.90;;;;;;5040352;28;20431;-79
2021/10/05 11:03:40;;;;;;;4.93;4.63;;;12.80;99.90;;;;;;5043291;28;20432;-80
2021/10/05 11:06:16;;;;;;;5.40;5.00;;;12.90;99.90;;;;;;5042585;28;20420;-79
2021/10/05 11:08:53;;;;;;;4.83;4.53;;;12.90;99.90;;;;;;5042502;28;20416;-79
2021/10/05 11:11:32;;;;;;;4.50;4.20;;;13.00;99.90;;;;;;5041439;28;20423;-79
2021/10/05 11:14:01;;;;;;;4.80;4.50;;;13.00;99.90;;;;;;5045073;28;20416;-79
2021/10/05 11:16:29;;;;;;;3.63;3.43;;;13.10;99.90;;;;;;5043379;28;20411;-79
2021/10/05 11:19:12;;;;;;;3.47;3.27;;;13.20;99.90;;;;;;5042269;28;20427;-79
2021/10/05 11:21:43;;;;;;;8.53;3.67;;;13.20;99.90;;;;;;5043645;28;20459;-79
2021/10/05 11:24:11;;;;;;;3.80;3.50;;;13.20;99.90;;;;;;5043412;28;20426;-79
2021/10/05 11:26:40;;;;;;;4.50;4.20;;;13.30;99.90;;;;;;5041910;28;20550;-79
2021/10/05 11:29:06;;;;;;;4.77;4.10;;;13.30;99.90;;;;;;5042331;28;20417;-79
2021/10/05 11:31:51;;;;;;;4.10;3.80;;;13.30;99.90;;;;;;5043696;28;20427;-79
2021/10/05 11:34:19;;;;;;;4.13;3.70;;;13.40;99.90;;;;;;5042110;28;20558;-79
2021/10/05 11:36:46;;;;;;;3.90;3.70;;;13.50;99.90;;;;;;5041568;28;20776;-79
2021/10/05 11:39:24;;;;;;;3.60;3.47;;;13.60;99.90;;;;;;5037550;28;20428;-79
2021/10/05 11:41:53;;;;;;;3.20;3.03;;;13.60;99.90;;;;;;5040885;28;20452;-78
2021/10/05 11:44:20;;;;;;;3.57;3.27;;;13.70;99.90;;;;;;5039804;28;20442;-79
2021/10/05 11:46:55;;;;;;;3.80;3.53;;;13.60;99.90;;;;;;5039201;28;20489;-79
2021/10/05 11:49:22;;;;;;;2.77;2.67;;;13.60;99.90;;;;;;5045424;28;20462;-79
2021/10/05 11:51:51;;;;;;;3.17;2.97;;;13.70;99.90;;;;;;5041277;28;20449;-80
2021/10/05 11:54:23;;;;;;;2.60;2.50;;;13.90;99.90;;;;;;5037491;28;20446;-80
2021/10/05 11:56:50;;;;;;;2.97;2.87;;;14.00;99.90;;;;;;5040309;28;20439;-80
2021/10/05 11:59:24;;;;;;;2.80;2.70;;;14.10;99.90;;;;;;5039146;28;20434;-80
2021/10/05 12:01:56;;;;;;;2.37;2.27;;;14.20;99.90;;;;;;5041769;28;20533;-79
2021/10/05 12:04:22;;;;;;;2.40;2.30;;;14.20;99.90;;;;;;5040938;28;20417;-80
2021/10/05 12:06:54;;;;;;;2.50;2.40;;;14.20;99.90;;;;;;5042767;28;20420;-80
2021/10/05 12:09:26;;;;;;;2.63;2.43;;;14.20;99.90;;;;;;5041190;28;20659;-80
2021/10/05 12:11:58;;;;;;;2.10;2.00;;;14.20;99.90;;;;;;5040838;28;20446;-80
2021/10/05 12:14:29;;;;;;;2.00;1.90;;;14.20;99.90;;;;;;5056821;28;20866;-80
2021/10/05 12:17:04;;;;;;;2.13;2.03;;;14.10;99.90;;;;;;5039021;28;20514;-80
2021/10/05 12:19:52;;;;;;;2.07;1.97;;;14.00;99.90;;;;;;5041013;28;20849;-80
2021/10/05 12:22:24;;;;;;;1.70;1.67;;;14.00;99.90;;;;;;5043411;28;20479;-80
2021/10/05 12:24:59;;;;;;;2.13;2.03;;;14.00;99.90;;;;;;5041287;28;20438;-80
2021/10/05 12:27:30;;;;;;;1.90;1.80;;;13.90;99.90;;;;;;5041032;28;20832;-80
2021/10/05 12:30:01;;;;;;;1.70;1.60;;;13.90;99.90;;;;;;5039923;28;20435;-80
2021/10/05 12:32:48;;;;;;;1.97;1.87;;;14.00;99.90;;;;;;5036048;28;21239;-80
2021/10/05 12:35:35;;;;;;;2.10;1.60;;;14.00;99.90;;;;;;5039060;28;20420;-78
2021/10/05 12:38:18;;;;;;;1.73;1.67;;;14.10;99.90;;;;;;5041311;28;20423;-79
2021/10/05 12:40:45;;;;;;;1.60;1.60;;;14.20;99.90;;;;;;5042720;28;20438;-78
2021/10/05 12:43:13;;;;;;;1.37;1.30;;;14.30;99.90;;;;;;5040315;28;21027;-79
2021/10/05 12:45:39;;;;;;;1.40;1.40;;;14.30;99.90;;;;;;5039484;28;20538;-79
2021/10/05 12:48:07;;;;;;;1.50;1.40;;;14.30;99.90;;;;;;5040312;28;20423;-79
2021/10/05 12:50:38;;;;;;;1.53;1.53;;;14.30;99.90;;;;;;5043260;28;20423;-79
2021/10/05 12:53:05;;;;;;;4.70;3.30;;;14.30;99.90;;;;;;5039670;28;20431;-79
2021/10/05 12:55:32;;;;;;;6.77;4.00;;;14.40;99.90;;;;;;5034204;28;20494;-78